createdAt,value
2022-11-03T00:00:57.427Z,99865.47
2022-11-03T00:03:27.616Z,99862.41
2022-11-03T00:06:07.003Z,99858.03
2022-11-03T00:08:36.060Z,99851.16
2022-11-03T00:11:07.392Z,99850.88
2022-11-03T00:13:35.019Z,99851.72
2022-11-03T00:16:02.136Z,99856.78
2022-11-03T00:18:29.223Z,99849.16
2022-11-03T00:21:00.367Z,99862.53
2022-11-03T00:23:31.062Z,99865.28
2022-11-03T00:26:18.246Z,99860.94
2022-11-03T00:28:45.714Z,99849.41
2022-11-03T00:31:14.090Z,99853.63
2022-11-03T00:33:41.327Z,99851.78
2022-11-03T00:36:08.852Z,99856.47
2022-11-03T00:38:37.646Z,99855.25
2022-11-03T00:41:05.650Z,99843.88
2022-11-03T00:43:33.444Z,99851.91
2022-11-03T00:46:01.166Z,99854.53
2022-11-03T00:48:31.008Z,99849.91
2022-11-03T00:51:00.944Z,99845.91
2022-11-03T00:53:28.653Z,99838.97
2022-11-03T00:55:55.783Z,99837.56
2022-11-03T00:58:22.910Z,99843.97
2022-11-03T01:00:50.382Z,99841.72
2022-11-03T01:03:17.559Z,99842.81
2022-11-03T01:06:03.238Z,99842.19
2022-11-03T01:08:34.143Z,99843.69
2022-11-03T01:11:27.196Z,99837.75
2022-11-03T01:13:54.582Z,99836.94
2022-11-03T01:16:22.001Z,99834.16
2022-11-03T01:18:49.280Z,99830.41
2022-11-03T01:21:16.701Z,99833.97
2022-11-03T01:23:43.922Z,99830.63
2022-11-03T01:26:11.678Z,99823.06
2022-11-03T01:28:39.481Z,99828.03
2022-11-03T01:31:16.835Z,99823.28
2022-11-03T01:33:45.731Z,99822.44
2022-11-03T01:36:13.070Z,99815.88
2022-11-03T01:38:40.196Z,99825.25
2022-11-03T01:41:10.415Z,99820.63
2022-11-03T01:43:38.867Z,99823.03
2022-11-03T01:46:24.701Z,99822.94
2022-11-03T01:48:56.475Z,99822.06
2022-11-03T01:51:23.656Z,99826.41
2022-11-03T01:53:51.351Z,99815.81
2022-11-03T01:56:18.733Z,99822.06
2022-11-03T01:58:46.902Z,99818.63
2022-11-03T02:01:14.116Z,99821.44
2022-11-03T02:03:42.826Z,99818.00
2022-11-03T02:06:10.210Z,99810.00
2022-11-03T02:08:37.359Z,99805.69
2022-11-03T02:11:24.530Z,99817.28
2022-11-03T02:13:52.239Z,99816.53
2022-11-03T02:16:19.660Z,99816.97
2022-11-03T02:18:46.785Z,99825.03
2022-11-03T02:21:22.341Z,99834.00
2022-11-03T02:24:09.721Z,99825.91
2022-11-03T02:26:37.112Z,99823.28
2022-11-03T02:29:04.240Z,99824.38
2022-11-03T02:31:31.633Z,99826.91
2022-11-03T02:34:01.659Z,99836.44
2022-11-03T02:36:42.098Z,99832.94
2022-11-03T02:39:15.178Z,99831.50
2022-11-03T02:41:42.456Z,99835.69
2022-11-03T02:44:12.203Z,99833.41
2022-11-03T02:46:39.322Z,99827.19
2022-11-03T02:49:06.495Z,99821.06
2022-11-03T02:51:34.869Z,99820.13
2022-11-03T02:54:10.221Z,99821.38
2022-11-03T02:56:39.686Z,99813.69
2022-11-03T02:59:08.588Z,99809.22
2022-11-03T03:01:37.345Z,99798.62
2022-11-03T03:04:06.475Z,99805.59
2022-11-03T03:06:35.336Z,99805.81
2022-11-03T03:09:03.897Z,99802.31
2022-11-03T03:11:38.470Z,99806.50
2022-11-03T03:14:10.377Z,99805.47
2022-11-03T03:17:01.099Z,99804.69
2022-11-03T03:19:46.724Z,99810.66
2022-11-03T03:22:34.321Z,99803.75
2022-11-03T03:25:03.815Z,99803.66
2022-11-03T03:27:31.817Z,99807.09
2022-11-03T03:30:00.624Z,99808.88
2022-11-03T03:32:28.215Z,99805.66
2022-11-03T03:34:55.625Z,99802.22
2022-11-03T03:37:23.151Z,99805.63
2022-11-03T03:39:51.746Z,99813.31
2022-11-03T03:42:19.150Z,99808.81
2022-11-03T03:44:46.296Z,99815.84
2022-11-03T03:47:22.121Z,99810.72
2022-11-03T03:49:49.844Z,99808.94
2022-11-03T03:52:16.947Z,99813.31
2022-11-03T03:54:44.065Z,99817.78
2022-11-03T03:57:13.946Z,99811.69
2022-11-03T03:59:41.043Z,99816.91
2022-11-03T04:02:08.280Z,99807.34
2022-11-03T04:04:35.765Z,99804.09
2022-11-03T04:07:21.690Z,99805.81
2022-11-03T04:09:49.208Z,99819.09
2022-11-03T04:12:34.888Z,99822.78
2022-11-03T04:15:20.733Z,99824.56
2022-11-03T04:18:06.946Z,99825.44
2022-11-03T04:20:53.151Z,99819.22
2022-11-03T04:23:20.276Z,99820.88
2022-11-03T04:25:48.322Z,99814.75
2022-11-03T04:28:15.627Z,99805.97
2022-11-03T04:30:42.776Z,99812.03
2022-11-03T04:33:20.287Z,99804.09
2022-11-03T04:35:47.785Z,99809.41
2022-11-03T04:38:15.108Z,99811.16
2022-11-03T04:40:49.172Z,99817.25
2022-11-03T04:43:19.717Z,99819.97
2022-11-03T04:45:47.439Z,99814.78
2022-11-03T04:48:15.348Z,99819.91
2022-11-03T04:50:46.588Z,99811.28
2022-11-03T04:53:14.724Z,99810.37
2022-11-03T04:55:41.996Z,99809.34
2022-11-03T04:58:22.527Z,99803.25
2022-11-03T05:00:53.510Z,99811.09
2022-11-03T05:03:22.956Z,99820.75
2022-11-03T05:05:50.083Z,99819.00
2022-11-03T05:08:20.465Z,99810.16
2022-11-03T05:10:48.134Z,99809.19
2022-11-03T05:13:16.970Z,99812.84
2022-11-03T05:15:45.260Z,99808.44
2022-11-03T05:18:20.269Z,99813.59
2022-11-03T05:20:50.827Z,99806.59
2022-11-03T05:23:18.435Z,99809.25
2022-11-03T05:25:45.969Z,99812.66
2022-11-03T05:28:16.152Z,99816.13
2022-11-03T05:30:43.508Z,99819.00
2022-11-03T05:33:30.962Z,99816.34
2022-11-03T05:35:59.736Z,99804.03
2022-11-03T05:38:29.139Z,99815.28
2022-11-03T05:40:56.265Z,99818.84
2022-11-03T05:43:23.662Z,99822.22
2022-11-03T05:45:51.491Z,99817.87
2022-11-03T05:48:21.782Z,99812.63
2022-11-03T05:50:49.178Z,99816.22
2022-11-03T05:53:16.577Z,99815.09
2022-11-03T05:55:43.702Z,99817.72
2022-11-03T05:58:14.159Z,99823.81
2022-11-03T06:00:47.118Z,99824.28
2022-11-03T06:03:16.848Z,99835.72
2022-11-03T06:05:43.956Z,99844.66
2022-11-03T06:08:17.866Z,99841.16
2022-11-03T06:10:45.920Z,99846.38
2022-11-03T06:13:18.419Z,99852.41
2022-11-03T06:15:46.383Z,99867.03
2022-11-03T06:18:16.953Z,99868.19
2022-11-03T06:20:44.928Z,99870.75
2022-11-03T06:23:12.754Z,99867.31
2022-11-03T06:25:41.998Z,99881.31
2022-11-03T06:28:11.775Z,99879.47
2022-11-03T06:30:39.876Z,99884.56
2022-11-03T06:33:09.905Z,99882.97
2022-11-03T06:35:37.074Z,99883.88
2022-11-03T06:38:05.623Z,99882.16
2022-11-03T06:40:33.382Z,99886.53
2022-11-03T06:43:01.166Z,99889.09
2022-11-03T06:45:29.555Z,99890.88
2022-11-03T06:47:56.655Z,99889.16
2022-11-03T06:50:30.920Z,99880.41
2022-11-03T06:52:58.618Z,99889.06
2022-11-03T06:55:26.642Z,99885.66
2022-11-03T06:57:55.360Z,99889.00
2022-11-03T07:00:36.171Z,99891.69
2022-11-03T07:03:04.237Z,99899.63
2022-11-03T07:05:32.265Z,99891.66
2022-11-03T07:08:00.391Z,99890.59
2022-11-03T07:10:28.697Z,99895.06
2022-11-03T07:12:56.453Z,99895.03
2022-11-03T07:15:25.739Z,99895.06
2022-11-03T07:17:52.836Z,99898.53
2022-11-03T07:20:20.232Z,99889.63
2022-11-03T07:22:47.459Z,99902.22
2022-11-03T07:25:16.484Z,99904.84
2022-11-03T07:27:43.856Z,99907.47
2022-11-03T07:30:21.226Z,99909.22
2022-11-03T07:32:52.790Z,99906.62
2022-11-03T07:35:41.626Z,99906.59
2022-11-03T07:38:21.235Z,99911.84
2022-11-03T07:40:49.248Z,99910.06
2022-11-03T07:43:20.995Z,99900.50
2022-11-03T07:45:48.831Z,99904.00
2022-11-03T07:48:15.945Z,99908.34
2022-11-03T07:50:43.295Z,99900.44
2022-11-03T07:53:12.378Z,99899.63
2022-11-03T07:55:39.648Z,99907.44
2022-11-03T07:58:18.269Z,99902.72
2022-11-03T08:00:45.738Z,99907.34
2022-11-03T08:03:21.344Z,99904.56
2022-11-03T08:05:48.438Z,99890.78
2022-11-03T08:08:15.835Z,99898.97
2022-11-03T08:10:43.010Z,99904.47
2022-11-03T08:13:10.142Z,99902.06
2022-11-03T08:15:37.511Z,99892.38
2022-11-03T08:18:04.767Z,99895.75
2022-11-03T08:20:31.867Z,99890.78
2022-11-03T08:23:23.839Z,99906.31
2022-11-03T08:25:46.574Z,99906.81
2022-11-03T08:28:14.051Z,99905.12
2022-11-03T08:30:41.162Z,99898.62
2022-11-03T08:33:08.691Z,99889.44
2022-11-03T08:35:36.395Z,99893.78
2022-11-03T08:38:03.726Z,99891.88
2022-11-03T08:40:30.976Z,99903.41
2022-11-03T08:42:58.450Z,99893.59
2022-11-03T08:45:25.553Z,99881.63
2022-11-03T08:47:52.636Z,99884.03
2022-11-03T08:50:20.064Z,99879.22
2022-11-03T08:52:47.162Z,99876.59
2022-11-03T08:55:16.974Z,99866.34
2022-11-03T08:57:44.374Z,99873.31
2022-11-03T09:00:11.800Z,99878.34
2022-11-03T09:02:38.961Z,99874.09
2022-11-03T09:05:09.828Z,99876.59
2022-11-03T09:10:28.441Z,99868.38
2022-11-03T09:13:01.644Z,99870.22
2022-11-03T09:15:29.380Z,99869.47
2022-11-03T09:17:56.632Z,99863.44
2022-11-03T09:20:26.196Z,99860.22
2022-11-03T09:22:56.025Z,99856.84
2022-11-03T09:25:25.968Z,99863.75
2022-11-03T09:27:53.481Z,99860.25
2022-11-03T09:30:21.260Z,99856.84
2022-11-03T09:32:48.583Z,99852.31
2022-11-03T09:35:17.034Z,99851.56
2022-11-03T09:37:44.405Z,99858.25
2022-11-03T09:40:11.773Z,99853.00
2022-11-03T09:42:39.320Z,99853.16
2022-11-03T09:45:07.733Z,99849.78
2022-11-03T09:47:41.779Z,99847.91
2022-11-03T09:50:16.728Z,99828.94
2022-11-03T09:52:48.771Z,99840.09
2022-11-03T09:55:27.796Z,99838.34
2022-11-03T09:57:55.592Z,99822.66
2022-11-03T10:00:23.565Z,99831.22
2022-11-03T10:02:50.954Z,99824.28
2022-11-03T10:05:25.085Z,99817.47
2022-11-03T10:10:20.434Z,99806.16
2022-11-03T10:12:48.360Z,99795.81
2022-11-03T10:15:16.595Z,99795.69
2022-11-03T10:17:44.633Z,99795.69
2022-11-03T10:20:12.663Z,99781.78
2022-11-03T10:22:41.351Z,99777.47
2022-11-03T10:25:26.477Z,99779.13
2022-11-03T10:28:09.234Z,99788.31
2022-11-03T10:31:11.202Z,99789.19
2022-11-03T10:33:40.873Z,99783.91
2022-11-03T10:36:17.097Z,99781.56
2022-11-03T10:38:45.037Z,99776.41
2022-11-03T10:41:15.257Z,99774.44
2022-11-03T10:43:43.819Z,99767.09
2022-11-03T10:46:36.933Z,99763.94
2022-11-03T10:49:12.764Z,99763.25
2022-11-03T10:51:40.453Z,99756.31
2022-11-03T10:54:10.345Z,99745.56
2022-11-03T10:56:37.456Z,99748.41
2022-11-03T10:59:04.847Z,99742.41
2022-11-03T11:01:32.096Z,99738.28
2022-11-03T11:03:59.388Z,99735.66
2022-11-03T11:06:29.763Z,99733.03
2022-11-03T11:09:04.111Z,99734.72
2022-11-03T11:11:31.492Z,99732.78
2022-11-03T11:14:17.199Z,99731.50
2022-11-03T11:16:47.610Z,99710.28
2022-11-03T11:19:14.761Z,99713.63
2022-11-03T11:21:41.810Z,99705.78
2022-11-03T11:24:09.560Z,99705.06
2022-11-03T11:26:37.207Z,99705.06
2022-11-03T11:29:10.362Z,99704.97
2022-11-03T11:31:38.223Z,99701.44
2022-11-03T11:34:17.279Z,99704.37
2022-11-03T11:37:04.628Z,99694.13
2022-11-03T11:39:32.141Z,99686.75
2022-11-03T11:42:12.279Z,99681.47
2022-11-03T11:44:39.555Z,99670.19
2022-11-03T11:47:25.793Z,99675.47
2022-11-03T11:50:02.049Z,99668.47
2022-11-03T11:52:29.839Z,99668.47
2022-11-03T11:54:56.959Z,99666.69
2022-11-03T11:57:24.114Z,99659.75
2022-11-03T11:59:51.490Z,99656.28
2022-11-03T12:02:19.503Z,99665.56
2022-11-03T12:04:47.193Z,99646.59
2022-11-03T12:07:14.318Z,99643.19
2022-11-03T12:10:00.196Z,99637.09
2022-11-03T12:12:33.769Z,99635.37
2022-11-03T12:15:00.861Z,99633.59
2022-11-03T12:17:28.163Z,99633.63
2022-11-03T12:19:55.347Z,99632.78
2022-11-03T12:22:29.250Z,99627.56
2022-11-03T12:25:00.768Z,99626.72
2022-11-03T12:27:29.220Z,99624.97
2022-11-03T12:29:57.734Z,99624.00
2022-11-03T12:32:33.542Z,99624.81
2022-11-03T12:35:06.232Z,99612.72
2022-11-03T12:37:33.384Z,99608.41
2022-11-03T12:40:00.670Z,99611.87
2022-11-03T12:42:28.057Z,99604.06
2022-11-03T12:44:55.913Z,99597.97
2022-11-03T12:47:23.156Z,99603.16
2022-11-03T12:49:50.568Z,99594.47
2022-11-03T12:52:17.688Z,99595.31
2022-11-03T12:54:45.090Z,99600.53
2022-11-03T12:57:12.469Z,99588.38
2022-11-03T12:59:39.596Z,99592.72
2022-11-03T13:02:06.956Z,99591.88
2022-11-03T13:04:34.412Z,99593.59
2022-11-03T13:07:01.549Z,99594.47
2022-11-03T13:09:28.642Z,99584.75
2022-11-03T13:12:14.475Z,99581.28
2022-11-03T13:14:45.920Z,99579.63
2022-11-03T13:17:15.536Z,99571.81
2022-11-03T13:19:42.669Z,99570.97
2022-11-03T13:22:09.773Z,99575.28
2022-11-03T13:24:37.162Z,99579.38
2022-11-03T13:27:04.319Z,99565.69
2022-11-03T13:29:35.349Z,99559.63
2022-11-03T13:32:03.687Z,99556.16
2022-11-03T13:34:30.912Z,99558.75
2022-11-03T13:36:58.769Z,99561.38
2022-11-03T13:39:26.172Z,99555.28
2022-11-03T13:41:53.278Z,99552.53
2022-11-03T13:44:20.562Z,99545.66
2022-11-03T13:46:47.955Z,99546.56
2022-11-03T13:52:03.331Z,99548.31
2022-11-03T14:00:05.656Z,99544.84
2022-11-03T14:05:27.635Z,99540.41
2022-11-03T14:07:54.762Z,99546.53
2022-11-03T14:10:21.920Z,99536.13
2022-11-03T14:12:49.290Z,99540.38
2022-11-03T14:15:16.495Z,99529.13
2022-11-03T14:17:43.612Z,99523.78
2022-11-03T14:20:11.434Z,99535.06
2022-11-03T14:22:39.111Z,99541.81
2022-11-03T14:25:06.529Z,99533.22
2022-11-03T14:27:33.973Z,99534.22
2022-11-03T14:30:01.079Z,99523.00
2022-11-03T14:32:28.200Z,99528.25
2022-11-03T14:34:55.676Z,99518.53
2022-11-03T14:37:25.314Z,99522.06
2022-11-03T14:39:52.556Z,99527.41
2022-11-03T14:42:20.002Z,99524.78
2022-11-03T14:44:47.591Z,99527.41
2022-11-03T14:47:18.749Z,99522.19
2022-11-03T14:49:47.498Z,99517.84
2022-11-03T14:52:14.830Z,99516.09
2022-11-03T14:54:42.036Z,99518.69
2022-11-03T14:57:09.839Z,99516.97
2022-11-03T14:59:36.957Z,99515.22
2022-11-03T15:02:04.543Z,99510.75
2022-11-03T15:04:32.249Z,99513.87
2022-11-03T15:06:59.422Z,99509.84
2022-11-03T15:09:26.537Z,99495.22
2022-11-03T15:11:53.928Z,99500.41
2022-11-03T15:14:21.069Z,99501.88
2022-11-03T15:16:48.264Z,99492.44
2022-11-03T15:19:15.642Z,99485.63
2022-11-03T15:21:42.869Z,99478.69
2022-11-03T15:26:57.326Z,99473.06
2022-11-03T15:29:24.471Z,99467.16
2022-11-03T15:31:51.825Z,99482.63
2022-11-03T15:34:19.205Z,99480.81
2022-11-03T15:36:46.329Z,99487.84
2022-11-03T15:39:13.611Z,99482.09
2022-11-03T15:41:41.072Z,99474.16
2022-11-03T15:44:08.219Z,99483.25
2022-11-03T15:46:35.887Z,99474.69
2022-11-03T15:49:03.738Z,99483.91
2022-11-03T15:51:30.926Z,99485.19
2022-11-03T15:53:59.143Z,99478.00
2022-11-03T15:56:27.223Z,99479.47
2022-11-03T15:58:54.507Z,99485.22
2022-11-03T16:01:21.761Z,99479.75
2022-11-03T16:03:49.315Z,99465.66
2022-11-03T16:06:16.558Z,99462.88
2022-11-03T16:08:43.709Z,99466.91
2022-11-03T16:11:11.087Z,99452.87
2022-11-03T16:13:38.294Z,99447.13
2022-11-03T16:16:05.603Z,99461.53
2022-11-03T16:18:33.229Z,99468.63
2022-11-03T16:21:00.475Z,99457.03
2022-11-03T16:23:27.616Z,99449.25
2022-11-03T16:25:55.065Z,99448.75
2022-11-03T16:28:23.230Z,99448.19
2022-11-03T16:30:54.305Z,99442.94
2022-11-03T16:33:22.445Z,99440.97
2022-11-03T16:35:49.561Z,99443.91
2022-11-03T16:38:16.982Z,99439.19
2022-11-03T16:40:44.460Z,99443.00
2022-11-03T16:43:11.853Z,99447.50
2022-11-03T16:45:38.961Z,99445.06
2022-11-03T16:48:07.397Z,99439.22
2022-11-03T16:50:35.059Z,99445.13
2022-11-03T16:53:02.945Z,99452.50
2022-11-03T16:55:30.367Z,99435.84
2022-11-03T16:57:57.766Z,99456.25
2022-11-03T17:00:25.119Z,99451.19
2022-11-03T17:02:52.511Z,99454.50
2022-11-03T17:05:21.946Z,99448.88
2022-11-03T17:07:53.712Z,99451.69
2022-11-03T17:10:22.222Z,99455.84
2022-11-03T17:12:50.069Z,99452.59
2022-11-03T17:15:17.437Z,99449.94
2022-11-03T17:17:44.894Z,99456.03
2022-11-03T17:20:12.144Z,99451.69
2022-11-03T17:22:39.468Z,99451.47
2022-11-03T17:25:09.516Z,99444.63
2022-11-03T17:27:44.805Z,99443.72
2022-11-03T17:30:13.345Z,99446.38
2022-11-03T17:32:44.303Z,99431.69
2022-11-03T17:35:18.036Z,99429.06
2022-11-03T17:37:45.873Z,99418.62
2022-11-03T17:40:17.085Z,99412.53
2022-11-03T17:42:44.626Z,99418.56
2022-11-03T17:45:12.722Z,99411.69
2022-11-03T17:47:40.202Z,99404.69
2022-11-03T17:50:08.081Z,99402.81
2022-11-03T17:52:36.156Z,99401.13
2022-11-03T17:55:05.127Z,99387.12
2022-11-03T17:57:32.995Z,99391.53
2022-11-03T18:00:02.059Z,99386.94
2022-11-03T18:02:38.094Z,99373.25
2022-11-03T18:05:14.180Z,99370.72
2022-11-03T18:07:44.415Z,99378.44
2022-11-03T18:10:12.025Z,99370.69
2022-11-03T18:12:59.598Z,99374.28
2022-11-03T18:15:27.453Z,99363.84
2022-11-03T18:17:54.981Z,99353.37
2022-11-03T18:20:23.967Z,99348.19
2022-11-03T18:22:52.023Z,99341.84
2022-11-03T18:25:20.676Z,99336.78
2022-11-03T18:27:48.431Z,99331.41
2022-11-03T18:30:16.905Z,99342.00
2022-11-03T18:32:45.669Z,99331.59
2022-11-03T18:35:15.878Z,99340.31
2022-11-03T18:37:47.674Z,99338.59
2022-11-03T18:40:16.179Z,99322.09
2022-11-03T18:42:44.115Z,99321.97
2022-11-03T18:45:12.758Z,99315.16
2022-11-03T18:47:40.579Z,99312.50
2022-11-03T18:50:14.618Z,99315.13
2022-11-03T18:52:43.005Z,99315.13
2022-11-03T18:55:12.397Z,99312.56
2022-11-03T18:57:40.275Z,99303.81
2022-11-03T19:00:19.593Z,99297.75
2022-11-03T19:02:47.948Z,99304.69
2022-11-03T19:05:16.004Z,99302.97
2022-11-03T19:07:44.112Z,99301.06
2022-11-03T19:10:15.176Z,99296.00
2022-11-03T19:12:48.826Z,99291.63
2022-11-03T19:15:19.203Z,99285.44
2022-11-03T19:17:47.918Z,99261.03
2022-11-03T19:20:16.285Z,99257.75
2022-11-03T19:22:43.969Z,99260.38
2022-11-03T19:25:11.537Z,99246.47
2022-11-03T19:27:39.693Z,99250.81
2022-11-03T19:30:07.866Z,99244.72
2022-11-03T19:32:36.408Z,99239.47
2022-11-03T19:35:06.636Z,99235.66
2022-11-03T19:37:35.995Z,99241.25
2022-11-03T19:40:22.994Z,99233.34
2022-11-03T19:42:51.945Z,99238.34
2022-11-03T19:45:20.365Z,99237.53
2022-11-03T19:48:18.187Z,99228.88
2022-11-03T19:50:40.645Z,99226.25
2022-11-03T19:53:08.734Z,99233.03
2022-11-03T19:55:36.515Z,99227.84
2022-11-03T19:58:16.447Z,99228.09
2022-11-03T20:00:44.859Z,99229.72
2022-11-03T20:03:13.462Z,99220.88
2022-11-03T20:05:43.964Z,99219.50
2022-11-03T20:08:19.936Z,99219.50
2022-11-03T20:10:49.020Z,99208.06
2022-11-03T20:13:18.330Z,99206.91
2022-11-03T20:15:46.625Z,99206.28
2022-11-03T20:18:14.558Z,99201.81
2022-11-03T20:20:43.436Z,99199.53
2022-11-03T20:23:24.344Z,99193.44
2022-11-03T20:25:52.338Z,99191.69
2022-11-03T20:28:23.411Z,99190.56
2022-11-03T20:30:51.078Z,99192.41
2022-11-03T20:33:19.706Z,99183.84
2022-11-03T20:35:47.085Z,99178.66
2022-11-03T20:38:17.481Z,99172.53
2022-11-03T20:40:45.479Z,99174.31
2022-11-03T20:43:22.281Z,99174.91
2022-11-03T20:45:50.331Z,99173.66
2022-11-03T20:48:17.718Z,99165.75
2022-11-03T20:50:53.688Z,99170.66
2022-11-03T20:53:22.259Z,99172.63
2022-11-03T20:55:50.086Z,99158.69
2022-11-03T20:58:18.409Z,99166.50
2022-11-03T21:00:46.232Z,99156.53
2022-11-03T21:03:37.682Z,99160.31
2022-11-03T21:06:05.648Z,99161.16
2022-11-03T21:08:32.872Z,99164.44
2022-11-03T21:11:20.312Z,99175.94
2022-11-03T21:13:47.980Z,99171.44
2022-11-03T21:16:33.699Z,99166.47
2022-11-03T21:19:20.248Z,99171.47
2022-11-03T21:21:47.568Z,99165.25
2022-11-03T21:24:15.172Z,99149.97
2022-11-03T21:26:42.704Z,99156.31
2022-11-03T21:29:10.493Z,99153.03
2022-11-03T21:31:37.954Z,99151.41
2022-11-03T21:34:05.148Z,99149.56
2022-11-03T21:36:32.336Z,99138.63
2022-11-03T21:38:59.698Z,99144.66
2022-11-03T21:41:45.754Z,99138.63
2022-11-03T21:44:16.053Z,99125.13
2022-11-03T21:46:43.527Z,99130.25
2022-11-03T21:49:29.458Z,99123.22
2022-11-03T21:52:19.294Z,99123.13
2022-11-03T21:54:46.445Z,99127.13
2022-11-03T21:57:16.997Z,99126.19
2022-11-03T21:59:44.123Z,99111.94
2022-11-03T22:02:11.351Z,99094.97
2022-11-03T22:04:38.816Z,99086.47
2022-11-03T22:07:06.181Z,99082.75
2022-11-03T22:09:33.408Z,99064.28
2022-11-03T22:12:00.984Z,99065.63
2022-11-03T22:14:48.073Z,99056.06
2022-11-03T22:17:15.496Z,99053.59
2022-11-03T22:20:01.400Z,99056.37
2022-11-03T22:22:47.949Z,99052.47
2022-11-03T22:25:33.844Z,99049.75
2022-11-03T22:28:01.249Z,99045.72
2022-11-03T22:30:47.266Z,99032.44
2022-11-03T22:33:14.732Z,99037.69
2022-11-03T22:36:00.282Z,99039.28
2022-11-03T22:38:46.248Z,99038.44
2022-11-03T22:41:32.045Z,99037.69
2022-11-03T22:44:17.935Z,99027.72
2022-11-03T22:46:45.068Z,99029.94
2022-11-03T22:49:12.463Z,99026.63
2022-11-03T22:51:39.574Z,99031.50
2022-11-03T22:54:12.717Z,99039.41
2022-11-03T22:56:40.146Z,99028.03
2022-11-03T22:59:07.546Z,99019.75
2022-11-03T23:01:35.100Z,99016.00
2022-11-03T23:04:04.834Z,99012.91
2022-11-03T23:06:34.308Z,99007.44
2022-11-03T23:09:01.552Z,99011.72
2022-11-03T23:11:32.441Z,99010.50
2022-11-03T23:14:00.644Z,99009.25
2022-11-03T23:16:28.858Z,99006.59
2022-11-03T23:19:15.195Z,99002.66
2022-11-03T23:21:44.134Z,98997.38
2022-11-03T23:24:30.268Z,98997.03
2022-11-03T23:26:59.505Z,98991.81
2022-11-03T23:29:27.366Z,98993.13
2022-11-03T23:31:54.847Z,98986.53
2022-11-03T23:34:22.077Z,98978.94
2022-11-03T23:36:49.596Z,98977.19
2022-11-03T23:39:17.444Z,98976.50
2022-11-03T23:41:44.589Z,98969.12
2022-11-03T23:44:12.213Z,98965.53
2022-11-03T23:46:58.087Z,98966.84
2022-11-03T23:49:25.481Z,98954.19
2022-11-03T23:51:52.683Z,98952.13
2022-11-03T23:54:19.804Z,98945.81
2022-11-03T23:57:06.059Z,98946.66
2022-11-03T23:59:34.038Z,98950.13
